Terminal Aerodrome Forecast
Issued by NWS Grand Forks, ND

Home | Current Version | Previous Version | Text Only | Print | Product List | Glossary Off
Versions: 1 2 3 4 5 6 7 8 9 10 11 12 13 14 15 16 17 18 19

000
FTUS43 KFGF 271720
TAFGFK
TAF
KGFK 271720Z 2718/2818 36012KT P6SM SCT100
     FM280000 06006KT P6SM SCT100 BKN250
     FM280600 11006KT P6SM BKN120=

USA.gov is the U.S. government's official web portal to all federal, state and local government web resources and services.